sensor_id;sensor_type;location;lat;lon;timestamp;temperature;humidity
18575;DHT22;9417;16.484;102.872;2023-05-29T00:00:48;25.90;99.90
18575;DHT22;9417;16.484;102.872;2023-05-29T00:02:56;26.00;99.90
18575;DHT22;9417;16.484;102.872;2023-05-29T00:05:04;26.00;99.90
18575;DHT22;9417;16.484;102.872;2023-05-29T00:07:12;26.00;99.90
18575;DHT22;9417;16.484;102.872;2023-05-29T00:09:19;26.00;99.90
18575;DHT22;9417;16.484;102.872;2023-05-29T00:11:28;26.00;99.90
18575;DHT22;9417;16.484;102.872;2023-05-29T00:13:35;26.00;99.90
18575;DHT22;9417;16.484;102.872;2023-05-29T00:15:43;25.90;99.90
18575;DHT22;9417;16.484;102.872;2023-05-29T00:17:53;26.00;99.90
18575;DHT22;9417;16.484;102.872;2023-05-29T00:20:02;26.00;99.90
18575;DHT22;9417;16.484;102.872;2023-05-29T00:22:12;26.00;99.90
18575;DHT22;9417;16.484;102.872;2023-05-29T00:24:19;26.00;99.90
18575;DHT22;9417;16.484;102.872;2023-05-29T00:26:29;26.00;99.90
18575;DHT22;9417;16.484;102.872;2023-05-29T00:28:36;26.00;99.90
18575;DHT22;9417;16.484;102.872;2023-05-29T00:30:44;26.00;99.90
18575;DHT22;9417;16.484;102.872;2023-05-29T00:32:52;26.00;99.90
18575;DHT22;9417;16.484;102.872;2023-05-29T00:34:59;26.00;99.90
18575;DHT22;9417;16.484;102.872;2023-05-29T00:37:07;26.00;99.70
18575;DHT22;9417;16.484;102.872;2023-05-29T00:39:15;26.10;99.50
18575;DHT22;9417;16.484;102.872;2023-05-29T00:41:22;26.20;99.50
18575;DHT22;9417;16.484;102.872;2023-05-29T00:43:31;26.20;99.30
18575;DHT22;9417;16.484;102.872;2023-05-29T00:45:39;26.20;99.50
18575;DHT22;9417;16.484;102.872;2023-05-29T00:47:47;26.20;99.40
18575;DHT22;9417;16.484;102.872;2023-05-29T00:49:56;26.30;99.60
18575;DHT22;9417;16.484;102.872;2023-05-29T00:52:04;26.30;99.50
18575;DHT22;9417;16.484;102.872;2023-05-29T00:54:13;26.40;99.80
18575;DHT22;9417;16.484;102.872;2023-05-29T00:56:22;26.50;99.40
18575;DHT22;9417;16.484;102.872;2023-05-29T00:58:31;26.40;99.20
18575;DHT22;9417;16.484;102.872;2023-05-29T01:00:39;26.40;99.00
18575;DHT22;9417;16.484;102.872;2023-05-29T01:02:48;26.40;98.80
18575;DHT22;9417;16.484;102.872;2023-05-29T01:04:58;26.40;99.00
18575;DHT22;9417;16.484;102.872;2023-05-29T01:07:06;26.40;99.40
18575;DHT22;9417;16.484;102.872;2023-05-29T01:09:14;26.30;99.90
18575;DHT22;9417;16.484;102.872;2023-05-29T01:11:26;26.30;99.90
18575;DHT22;9417;16.484;102.872;2023-05-29T01:13:42;26.20;99.90
18575;DHT22;9417;16.484;102.872;2023-05-29T01:15:56;26.20;99.90
18575;DHT22;9417;16.484;102.872;2023-05-29T01:18:19;26.20;99.90
18575;DHT22;9417;16.484;102.872;2023-05-29T01:20:32;26.20;99.90
18575;DHT22;9417;16.484;102.872;2023-05-29T01:23:07;26.30;99.90
18575;DHT22;9417;16.484;102.872;2023-05-29T01:25:21;26.30;99.90
18575;DHT22;9417;16.484;102.872;2023-05-29T01:27:32;26.40;99.90
18575;DHT22;9417;16.484;102.872;2023-05-29T01:29:40;26.40;99.90
18575;DHT22;9417;16.484;102.872;2023-05-29T01:31:50;26.50;99.90
18575;DHT22;9417;16.484;102.872;2023-05-29T01:33:59;26.50;99.90
18575;DHT22;9417;16.484;102.872;2023-05-29T01:36:08;26.50;99.90
18575;DHT22;9417;16.484;102.872;2023-05-29T01:38:16;26.60;99.90
18575;DHT22;9417;16.484;102.872;2023-05-29T01:40:23;26.60;99.90
18575;DHT22;9417;16.484;102.872;2023-05-29T01:42:33;26.70;99.90
18575;DHT22;9417;16.484;102.872;2023-05-29T01:44:41;26.80;99.90
18575;DHT22;9417;16.484;102.872;2023-05-29T01:46:51;26.90;99.90
18575;DHT22;9417;16.484;102.872;2023-05-29T01:49:00;27.00;99.90
18575;DHT22;9417;16.484;102.872;2023-05-29T01:51:07;27.10;99.10
18575;DHT22;9417;16.484;102.872;2023-05-29T01:53:16;27.30;98.80
18575;DHT22;9417;16.484;102.872;2023-05-29T01:55:23;27.40;97.90
18575;DHT22;9417;16.484;102.872;2023-05-29T01:57:33;27.50;97.10
18575;DHT22;9417;16.484;102.872;2023-05-29T01:59:40;27.60;96.20
18575;DHT22;9417;16.484;102.872;2023-05-29T02:01:49;27.60;95.70
18575;DHT22;9417;16.484;102.872;2023-05-29T02:03:56;27.70;95.30
18575;DHT22;9417;16.484;102.872;2023-05-29T02:06:04;27.80;95.50
18575;DHT22;9417;16.484;102.872;2023-05-29T02:08:11;27.80;94.40
18575;DHT22;9417;16.484;102.872;2023-05-29T02:10:18;27.90;94.30
18575;DHT22;9417;16.484;102.872;2023-05-29T02:12:26;28.00;93.70
18575;DHT22;9417;16.484;102.872;2023-05-29T02:14:36;28.10;93.20
18575;DHT22;9417;16.484;102.872;2023-05-29T02:16:46;28.20;93.00
18575;DHT22;9417;16.484;102.872;2023-05-29T02:18:54;28.30;91.50
18575;DHT22;9417;16.484;102.872;2023-05-29T02:21:02;28.40;90.90
18575;DHT22;9417;16.484;102.872;2023-05-29T02:23:10;28.40;90.30
18575;DHT22;9417;16.484;102.872;2023-05-29T02:25:17;28.50;89.90
18575;DHT22;9417;16.484;102.872;2023-05-29T02:27:25;28.50;89.60
18575;DHT22;9417;16.484;102.872;2023-05-29T02:29:34;28.60;90.20
18575;DHT22;9417;16.484;102.872;2023-05-29T02:31:42;28.80;90.60
18575;DHT22;9417;16.484;102.872;2023-05-29T02:33:49;28.90;88.10
18575;DHT22;9417;16.484;102.872;2023-05-29T02:35:58;28.90;88.30
18575;DHT22;9417;16.484;102.872;2023-05-29T02:38:06;29.00;88.20
18575;DHT22;9417;16.484;102.872;2023-05-29T02:40:16;29.10;87.90
18575;DHT22;9417;16.484;102.872;2023-05-29T02:42:24;29.20;87.60
18575;DHT22;9417;16.484;102.872;2023-05-29T02:44:32;29.20;87.90
18575;DHT22;9417;16.484;102.872;2023-05-29T02:46:41;29.20;87.00
18575;DHT22;9417;16.484;102.872;2023-05-29T02:48:49;29.30;86.90
18575;DHT22;9417;16.484;102.872;2023-05-29T02:50:56;29.40;87.20
18575;DHT22;9417;16.484;102.872;2023-05-29T02:53:04;29.50;86.90
18575;DHT22;9417;16.484;102.872;2023-05-29T02:55:11;29.60;85.30
18575;DHT22;9417;16.484;102.872;2023-05-29T02:57:19;29.50;84.70
18575;DHT22;9417;16.484;102.872;2023-05-29T02:59:26;29.50;85.30
18575;DHT22;9417;16.484;102.872;2023-05-29T03:01:34;29.50;85.80
18575;DHT22;9417;16.484;102.872;2023-05-29T03:03:44;29.60;84.90
18575;DHT22;9417;16.484;102.872;2023-05-29T03:05:52;29.70;83.30
18575;DHT22;9417;16.484;102.872;2023-05-29T03:07:59;29.70;83.90
18575;DHT22;9417;16.484;102.872;2023-05-29T03:10:07;29.70;81.50
18575;DHT22;9417;16.484;102.872;2023-05-29T03:12:15;29.80;83.10
18575;DHT22;9417;16.484;102.872;2023-05-29T03:14:24;29.90;81.90
18575;DHT22;9417;16.484;102.872;2023-05-29T03:16:32;29.90;81.70
18575;DHT22;9417;16.484;102.872;2023-05-29T03:18:43;30.00;82.20
18575;DHT22;9417;16.484;102.872;2023-05-29T03:20:54;30.00;81.90
18575;DHT22;9417;16.484;102.872;2023-05-29T03:23:03;30.00;81.50
18575;DHT22;9417;16.484;102.872;2023-05-29T03:25:12;30.00;80.70
18575;DHT22;9417;16.484;102.872;2023-05-29T03:27:21;29.90;80.60
18575;DHT22;9417;16.484;102.872;2023-05-29T03:29:37;29.90;80.80
18575;DHT22;9417;16.484;102.872;2023-05-29T03:31:45;29.90;80.70
18575;DHT22;9417;16.484;102.872;2023-05-29T03:34:01;29.90;81.90
18575;DHT22;9417;16.484;102.872;2023-05-29T03:36:12;30.00;81.80
18575;DHT22;9417;16.484;102.872;2023-05-29T03:38:21;30.10;81.20
18575;DHT22;9417;16.484;102.872;2023-05-29T03:40:32;30.00;81.10
18575;DHT22;9417;16.484;102.872;2023-05-29T03:42:40;30.10;82.00
18575;DHT22;9417;16.484;102.872;2023-05-29T03:44:52;30.10;81.80
18575;DHT22;9417;16.484;102.872;2023-05-29T03:47:00;30.20;82.30
18575;DHT22;9417;16.484;102.872;2023-05-29T03:49:12;30.10;81.10
18575;DHT22;9417;16.484;102.872;2023-05-29T03:51:19;30.10;81.40
18575;DHT22;9417;16.484;102.872;2023-05-29T03:53:30;30.00;81.90
18575;DHT22;9417;16.484;102.872;2023-05-29T03:55:37;30.00;82.00
18575;DHT22;9417;16.484;102.872;2023-05-29T03:57:45;30.10;82.70
18575;DHT22;9417;16.484;102.872;2023-05-29T03:59:52;30.20;82.10
18575;DHT22;9417;16.484;102.872;2023-05-29T04:02:00;30.30;82.80
18575;DHT22;9417;16.484;102.872;2023-05-29T04:04:08;30.60;82.40
18575;DHT22;9417;16.484;102.872;2023-05-29T04:06:17;30.70;80.80
18575;DHT22;9417;16.484;102.872;2023-05-29T04:08:24;30.80;80.00
18575;DHT22;9417;16.484;102.872;2023-05-29T04:10:32;30.70;79.50
18575;DHT22;9417;16.484;102.872;2023-05-29T04:12:40;30.60;79.20
18575;DHT22;9417;16.484;102.872;2023-05-29T04:14:47;30.40;80.40
18575;DHT22;9417;16.484;102.872;2023-05-29T04:16:55;30.40;81.10
18575;DHT22;9417;16.484;102.872;2023-05-29T04:19:03;30.50;81.70
18575;DHT22;9417;16.484;102.872;2023-05-29T04:21:10;30.50;81.50
18575;DHT22;9417;16.484;102.872;2023-05-29T04:23:20;30.50;80.80
18575;DHT22;9417;16.484;102.872;2023-05-29T04:25:28;30.50;79.70
18575;DHT22;9417;16.484;102.872;2023-05-29T04:27:37;30.50;80.40
18575;DHT22;9417;16.484;102.872;2023-05-29T04:29:46;30.50;80.50
18575;DHT22;9417;16.484;102.872;2023-05-29T04:31:56;30.70;80.30
18575;DHT22;9417;16.484;102.872;2023-05-29T04:34:03;30.90;79.30
18575;DHT22;9417;16.484;102.872;2023-05-29T04:36:11;31.00;78.80
18575;DHT22;9417;16.484;102.872;2023-05-29T04:38:23;31.00;78.00
18575;DHT22;9417;16.484;102.872;2023-05-29T04:40:31;31.10;79.00
18575;DHT22;9417;16.484;102.872;2023-05-29T04:42:41;31.10;78.40
18575;DHT22;9417;16.484;102.872;2023-05-29T04:44:51;30.90;78.20
18575;DHT22;9417;16.484;102.872;2023-05-29T04:46:59;30.80;78.60
18575;DHT22;9417;16.484;102.872;2023-05-29T04:49:08;30.70;79.40
18575;DHT22;9417;16.484;102.872;2023-05-29T04:51:16;30.60;79.20
18575;DHT22;9417;16.484;102.872;2023-05-29T04:53:26;30.60;79.40
18575;DHT22;9417;16.484;102.872;2023-05-29T04:55:35;30.60;79.60
18575;DHT22;9417;16.484;102.872;2023-05-29T04:57:43;30.60;80.00
18575;DHT22;9417;16.484;102.872;2023-05-29T04:59:51;30.60;79.30
18575;DHT22;9417;16.484;102.872;2023-05-29T05:01:58;30.60;79.90
18575;DHT22;9417;16.484;102.872;2023-05-29T05:04:06;30.60;78.80
18575;DHT22;9417;16.484;102.872;2023-05-29T05:06:13;30.90;78.60
18575;DHT22;9417;16.484;102.872;2023-05-29T05:08:21;31.00;78.10
18575;DHT22;9417;16.484;102.872;2023-05-29T05:10:31;31.10;78.00
18575;DHT22;9417;16.484;102.872;2023-05-29T05:12:38;31.20;77.50
18575;DHT22;9417;16.484;102.872;2023-05-29T05:14:46;31.30;77.50
18575;DHT22;9417;16.484;102.872;2023-05-29T05:16:55;31.20;76.00
18575;DHT22;9417;16.484;102.872;2023-05-29T05:19:02;31.20;76.50
18575;DHT22;9417;16.484;102.872;2023-05-29T05:21:13;31.20;76.80
18575;DHT22;9417;16.484;102.872;2023-05-29T05:23:22;31.30;76.10
18575;DHT22;9417;16.484;102.872;2023-05-29T05:25:32;31.50;76.20
18575;DHT22;9417;16.484;102.872;2023-05-29T05:27:40;31.70;75.80
18575;DHT22;9417;16.484;102.872;2023-05-29T05:29:47;32.00;75.20
18575;DHT22;9417;16.484;102.872;2023-05-29T05:31:55;32.20;73.90
18575;DHT22;9417;16.484;102.872;2023-05-29T05:34:03;32.40;73.60
18575;DHT22;9417;16.484;102.872;2023-05-29T05:36:11;32.50;72.20
18575;DHT22;9417;16.484;102.872;2023-05-29T05:38:19;32.50;71.90
18575;DHT22;9417;16.484;102.872;2023-05-29T05:40:27;32.40;72.10
18575;DHT22;9417;16.484;102.872;2023-05-29T05:42:41;32.30;72.80
18575;DHT22;9417;16.484;102.872;2023-05-29T05:44:49;32.10;73.20
18575;DHT22;9417;16.484;102.872;2023-05-29T05:46:58;32.20;72.50
18575;DHT22;9417;16.484;102.872;2023-05-29T05:49:06;32.30;69.40
18575;DHT22;9417;16.484;102.872;2023-05-29T05:51:16;32.60;70.30
18575;DHT22;9417;16.484;102.872;2023-05-29T05:53:24;32.80;70.10
18575;DHT22;9417;16.484;102.872;2023-05-29T05:55:33;32.90;69.50
18575;DHT22;9417;16.484;102.872;2023-05-29T05:57:42;32.80;69.30
18575;DHT22;9417;16.484;102.872;2023-05-29T05:59:50;32.80;70.50
18575;DHT22;9417;16.484;102.872;2023-05-29T06:01:59;32.90;68.90
18575;DHT22;9417;16.484;102.872;2023-05-29T06:04:12;32.80;68.70
18575;DHT22;9417;16.484;102.872;2023-05-29T06:06:20;32.80;69.90
18575;DHT22;9417;16.484;102.872;2023-05-29T06:08:28;32.70;69.90
18575;DHT22;9417;16.484;102.872;2023-05-29T06:10:35;32.70;70.30
18575;DHT22;9417;16.484;102.872;2023-05-29T06:12:44;32.70;70.10
18575;DHT22;9417;16.484;102.872;2023-05-29T06:14:59;32.50;70.10
18575;DHT22;9417;16.484;102.872;2023-05-29T06:17:07;32.40;70.20
18575;DHT22;9417;16.484;102.872;2023-05-29T06:19:14;32.50;70.60
18575;DHT22;9417;16.484;102.872;2023-05-29T06:21:32;32.60;70.10
18575;DHT22;9417;16.484;102.872;2023-05-29T06:23:39;32.60;69.10
18575;DHT22;9417;16.484;102.872;2023-05-29T06:25:48;32.50;69.30
18575;DHT22;9417;16.484;102.872;2023-05-29T06:27:57;32.50;70.00
18575;DHT22;9417;16.484;102.872;2023-05-29T06:30:06;32.70;70.40
18575;DHT22;9417;16.484;102.872;2023-05-29T06:32:14;32.70;70.20
18575;DHT22;9417;16.484;102.872;2023-05-29T06:34:22;32.80;69.20
18575;DHT22;9417;16.484;102.872;2023-05-29T06:36:29;32.90;70.70
18575;DHT22;9417;16.484;102.872;2023-05-29T06:38:37;33.00;68.50
18575;DHT22;9417;16.484;102.872;2023-05-29T06:40:45;33.10;67.00
18575;DHT22;9417;16.484;102.872;2023-05-29T06:42:53;33.00;65.30
18575;DHT22;9417;16.484;102.872;2023-05-29T06:45:21;33.00;67.20
18575;DHT22;9417;16.484;102.872;2023-05-29T06:47:29;33.20;66.70
18575;DHT22;9417;16.484;102.872;2023-05-29T06:49:37;33.30;66.40
18575;DHT22;9417;16.484;102.872;2023-05-29T06:51:45;33.50;66.00
18575;DHT22;9417;16.484;102.872;2023-05-29T06:53:59;33.70;66.30
18575;DHT22;9417;16.484;102.872;2023-05-29T06:56:09;33.80;67.00
18575;DHT22;9417;16.484;102.872;2023-05-29T06:58:16;33.90;67.50
18575;DHT22;9417;16.484;102.872;2023-05-29T07:00:26;33.80;67.80
18575;DHT22;9417;16.484;102.872;2023-05-29T07:02:53;33.60;68.00
18575;DHT22;9417;16.484;102.872;2023-05-29T07:05:01;33.50;68.70
18575;DHT22;9417;16.484;102.872;2023-05-29T07:07:09;33.20;69.20
18575;DHT22;9417;16.484;102.872;2023-05-29T07:09:17;33.10;69.60
18575;DHT22;9417;16.484;102.872;2023-05-29T07:11:25;33.10;69.80
18575;DHT22;9417;16.484;102.872;2023-05-29T07:13:33;33.00;70.10
18575;DHT22;9417;16.484;102.872;2023-05-29T07:15:43;33.00;70.80
18575;DHT22;9417;16.484;102.872;2023-05-29T07:17:51;33.00;71.00
18575;DHT22;9417;16.484;102.872;2023-05-29T07:20:02;32.90;71.00
18575;DHT22;9417;16.484;102.872;2023-05-29T07:22:13;33.00;70.80
18575;DHT22;9417;16.484;102.872;2023-05-29T07:24:21;33.10;70.20
18575;DHT22;9417;16.484;102.872;2023-05-29T07:26:28;33.20;70.20
18575;DHT22;9417;16.484;102.872;2023-05-29T07:28:38;33.10;70.20
18575;DHT22;9417;16.484;102.872;2023-05-29T07:30:49;33.00;70.90
18575;DHT22;9417;16.484;102.872;2023-05-29T07:32:56;32.80;71.70
18575;DHT22;9417;16.484;102.872;2023-05-29T07:35:05;32.60;72.50
18575;DHT22;9417;16.484;102.872;2023-05-29T07:37:13;32.30;72.90
18575;DHT22;9417;16.484;102.872;2023-05-29T07:39:20;32.10;73.60
18575;DHT22;9417;16.484;102.872;2023-05-29T07:41:29;31.80;74.80
18575;DHT22;9417;16.484;102.872;2023-05-29T07:43:37;31.50;75.60
18575;DHT22;9417;16.484;102.872;2023-05-29T07:45:47;31.40;76.10
18575;DHT22;9417;16.484;102.872;2023-05-29T07:47:55;31.30;76.20
18575;DHT22;9417;16.484;102.872;2023-05-29T07:50:05;31.10;76.50
18575;DHT22;9417;16.484;102.872;2023-05-29T07:52:13;31.00;77.00
18575;DHT22;9417;16.484;102.872;2023-05-29T07:54:20;30.80;77.30
18575;DHT22;9417;16.484;102.872;2023-05-29T07:56:28;30.80;77.70
18575;DHT22;9417;16.484;102.872;2023-05-29T07:58:35;30.70;77.80
18575;DHT22;9417;16.484;102.872;2023-05-29T08:00:44;30.60;77.90
18575;DHT22;9417;16.484;102.872;2023-05-29T08:02:54;30.50;78.30
18575;DHT22;9417;16.484;102.872;2023-05-29T08:05:08;30.50;78.90
18575;DHT22;9417;16.484;102.872;2023-05-29T08:07:16;30.40;79.40
18575;DHT22;9417;16.484;102.872;2023-05-29T08:09:23;30.40;79.80
18575;DHT22;9417;16.484;102.872;2023-05-29T08:11:32;30.30;80.30
18575;DHT22;9417;16.484;102.872;2023-05-29T08:13:39;30.30;80.60
18575;DHT22;9417;16.484;102.872;2023-05-29T08:15:47;30.20;80.70
18575;DHT22;9417;16.484;102.872;2023-05-29T08:17:57;30.20;80.70
18575;DHT22;9417;16.484;102.872;2023-05-29T08:20:06;30.20;80.90
18575;DHT22;9417;16.484;102.872;2023-05-29T08:22:15;30.20;80.80
18575;DHT22;9417;16.484;102.872;2023-05-29T08:24:22;30.20;80.70
18575;DHT22;9417;16.484;102.872;2023-05-29T08:26:30;30.20;80.60
18575;DHT22;9417;16.484;102.872;2023-05-29T08:28:38;30.20;80.40
18575;DHT22;9417;16.484;102.872;2023-05-29T08:30:46;30.20;80.50
18575;DHT22;9417;16.484;102.872;2023-05-29T08:32:55;30.10;80.20
18575;DHT22;9417;16.484;102.872;2023-05-29T08:35:03;30.10;80.60
18575;DHT22;9417;16.484;102.872;2023-05-29T08:37:10;30.10;80.80
18575;DHT22;9417;16.484;102.872;2023-05-29T08:39:18;30.20;81.00
18575;DHT22;9417;16.484;102.872;2023-05-29T08:41:28;30.20;81.20
18575;DHT22;9417;16.484;102.872;2023-05-29T08:43:42;30.30;81.30
18575;DHT22;9417;16.484;102.872;2023-05-29T08:45:53;30.30;81.30
18575;DHT22;9417;16.484;102.872;2023-05-29T08:48:03;30.30;81.40
18575;DHT22;9417;16.484;102.872;2023-05-29T08:50:14;30.30;81.10
18575;DHT22;9417;16.484;102.872;2023-05-29T08:52:24;30.40;80.80
18575;DHT22;9417;16.484;102.872;2023-05-29T08:54:32;30.40;80.40
18575;DHT22;9417;16.484;102.872;2023-05-29T08:56:40;30.50;80.30
18575;DHT22;9417;16.484;102.872;2023-05-29T08:58:49;30.60;80.20
18575;DHT22;9417;16.484;102.872;2023-05-29T09:00:58;30.60;80.10
18575;DHT22;9417;16.484;102.872;2023-05-29T09:03:07;30.50;80.10
18575;DHT22;9417;16.484;102.872;2023-05-29T09:05:15;30.50;79.80
18575;DHT22;9417;16.484;102.872;2023-05-29T09:07:23;30.50;80.30
18575;DHT22;9417;16.484;102.872;2023-05-29T09:09:31;30.50;80.60
18575;DHT22;9417;16.484;102.872;2023-05-29T09:11:38;30.50;80.90
18575;DHT22;9417;16.484;102.872;2023-05-29T09:13:47;30.50;81.40
18575;DHT22;9417;16.484;102.872;2023-05-29T09:15:58;30.50;81.70
18575;DHT22;9417;16.484;102.872;2023-05-29T09:18:08;30.50;81.70
18575;DHT22;9417;16.484;102.872;2023-05-29T09:20:16;30.50;81.50
18575;DHT22;9417;16.484;102.872;2023-05-29T09:22:24;30.40;81.30
18575;DHT22;9417;16.484;102.872;2023-05-29T09:24:32;30.40;81.50
18575;DHT22;9417;16.484;102.872;2023-05-29T09:26:49;30.40;81.60
18575;DHT22;9417;16.484;102.872;2023-05-29T09:28:57;30.40;81.60
18575;DHT22;9417;16.484;102.872;2023-05-29T09:31:14;30.40;82.00
18575;DHT22;9417;16.484;102.872;2023-05-29T09:33:24;30.40;82.30
18575;DHT22;9417;16.484;102.872;2023-05-29T09:35:36;30.30;82.40
18575;DHT22;9417;16.484;102.872;2023-05-29T09:37:44;30.40;82.50
18575;DHT22;9417;16.484;102.872;2023-05-29T09:39:51;30.30;82.60
18575;DHT22;9417;16.484;102.872;2023-05-29T09:41:59;30.30;82.60
18575;DHT22;9417;16.484;102.872;2023-05-29T09:44:06;30.30;82.70
18575;DHT22;9417;16.484;102.872;2023-05-29T09:46:16;30.30;82.70
18575;DHT22;9417;16.484;102.872;2023-05-29T09:48:26;30.20;82.60
18575;DHT22;9417;16.484;102.872;2023-05-29T09:50:34;30.20;82.60
18575;DHT22;9417;16.484;102.872;2023-05-29T09:52:41;30.10;82.50
18575;DHT22;9417;16.484;102.872;2023-05-29T09:54:49;30.10;82.70
18575;DHT22;9417;16.484;102.872;2023-05-29T09:56:58;30.10;82.90
18575;DHT22;9417;16.484;102.872;2023-05-29T09:59:06;30.10;83.30
18575;DHT22;9417;16.484;102.872;2023-05-29T10:01:15;30.10;83.60
18575;DHT22;9417;16.484;102.872;2023-05-29T10:03:24;30.10;84.00
18575;DHT22;9417;16.484;102.872;2023-05-29T10:05:34;30.10;84.20
18575;DHT22;9417;16.484;102.872;2023-05-29T10:07:44;30.10;84.50
18575;DHT22;9417;16.484;102.872;2023-05-29T10:09:57;30.10;84.80
18575;DHT22;9417;16.484;102.872;2023-05-29T10:12:07;30.20;84.90
18575;DHT22;9417;16.484;102.872;2023-05-29T10:14:18;30.10;84.90
18575;DHT22;9417;16.484;102.872;2023-05-29T10:16:28;30.10;84.90
18575;DHT22;9417;16.484;102.872;2023-05-29T10:18:42;30.10;84.80
18575;DHT22;9417;16.484;102.872;2023-05-29T10:20:51;30.10;84.30
18575;DHT22;9417;16.484;102.872;2023-05-29T10:23:02;30.00;84.10
18575;DHT22;9417;16.484;102.872;2023-05-29T10:25:11;30.00;84.30
18575;DHT22;9417;16.484;102.872;2023-05-29T10:27:21;30.00;84.40
18575;DHT22;9417;16.484;102.872;2023-05-29T10:29:31;30.00;84.50
18575;DHT22;9417;16.484;102.872;2023-05-29T10:31:50;30.00;84.90
18575;DHT22;9417;16.484;102.872;2023-05-29T10:34:11;30.00;85.10
18575;DHT22;9417;16.484;102.872;2023-05-29T10:36:23;30.00;85.30
18575;DHT22;9417;16.484;102.872;2023-05-29T10:38:33;29.90;85.70
18575;DHT22;9417;16.484;102.872;2023-05-29T10:40:40;29.90;85.90
18575;DHT22;9417;16.484;102.872;2023-05-29T10:42:48;29.90;85.90
18575;DHT22;9417;16.484;102.872;2023-05-29T10:44:58;29.90;86.10
18575;DHT22;9417;16.484;102.872;2023-05-29T10:47:06;29.90;86.10
18575;DHT22;9417;16.484;102.872;2023-05-29T10:49:18;29.80;86.00
18575;DHT22;9417;16.484;102.872;2023-05-29T10:51:27;29.80;86.20
18575;DHT22;9417;16.484;102.872;2023-05-29T10:53:36;29.80;86.20
18575;DHT22;9417;16.484;102.872;2023-05-29T10:55:47;29.80;86.20
18575;DHT22;9417;16.484;102.872;2023-05-29T10:57:54;29.70;86.10
18575;DHT22;9417;16.484;102.872;2023-05-29T11:00:06;29.70;86.70
18575;DHT22;9417;16.484;102.872;2023-05-29T11:02:21;29.60;86.70
18575;DHT22;9417;16.484;102.872;2023-05-29T11:04:31;29.60;86.70
18575;DHT22;9417;16.484;102.872;2023-05-29T11:06:39;29.60;87.00
18575;DHT22;9417;16.484;102.872;2023-05-29T11:08:47;29.60;87.10
18575;DHT22;9417;16.484;102.872;2023-05-29T11:10:58;29.60;87.10
18575;DHT22;9417;16.484;102.872;2023-05-29T11:13:06;29.60;87.00
18575;DHT22;9417;16.484;102.872;2023-05-29T11:15:15;29.60;87.20
18575;DHT22;9417;16.484;102.872;2023-05-29T11:17:32;29.60;87.40
18575;DHT22;9417;16.484;102.872;2023-05-29T11:19:42;29.60;87.60
18575;DHT22;9417;16.484;102.872;2023-05-29T11:21:59;29.60;87.50
18575;DHT22;9417;16.484;102.872;2023-05-29T11:24:17;29.60;87.60
18575;DHT22;9417;16.484;102.872;2023-05-29T11:26:27;29.50;87.60
18575;DHT22;9417;16.484;102.872;2023-05-29T11:28:34;29.50;87.80
18575;DHT22;9417;16.484;102.872;2023-05-29T11:30:43;29.50;87.70
18575;DHT22;9417;16.484;102.872;2023-05-29T11:32:52;29.50;87.70
18575;DHT22;9417;16.484;102.872;2023-05-29T11:35:06;29.50;87.80
18575;DHT22;9417;16.484;102.872;2023-05-29T11:37:14;29.50;88.00
18575;DHT22;9417;16.484;102.872;2023-05-29T11:39:26;29.40;87.80
18575;DHT22;9417;16.484;102.872;2023-05-29T11:41:34;29.30;87.90
18575;DHT22;9417;16.484;102.872;2023-05-29T11:43:41;29.30;88.10
18575;DHT22;9417;16.484;102.872;2023-05-29T11:45:48;29.20;87.90
18575;DHT22;9417;16.484;102.872;2023-05-29T11:47:58;29.20;88.00
18575;DHT22;9417;16.484;102.872;2023-05-29T11:50:21;29.20;88.20
18575;DHT22;9417;16.484;102.872;2023-05-29T11:52:29;29.10;88.40
18575;DHT22;9417;16.484;102.872;2023-05-29T11:54:36;29.10;88.50
18575;DHT22;9417;16.484;102.872;2023-05-29T11:56:43;29.10;88.70
18575;DHT22;9417;16.484;102.872;2023-05-29T11:58:53;29.20;88.80
18575;DHT22;9417;16.484;102.872;2023-05-29T12:01:01;29.10;89.00
18575;DHT22;9417;16.484;102.872;2023-05-29T12:03:08;29.10;89.30
18575;DHT22;9417;16.484;102.872;2023-05-29T12:05:18;29.10;89.60
18575;DHT22;9417;16.484;102.872;2023-05-29T12:07:26;29.10;89.40
18575;DHT22;9417;16.484;102.872;2023-05-29T12:09:34;29.10;89.20
18575;DHT22;9417;16.484;102.872;2023-05-29T12:11:41;29.10;89.00
18575;DHT22;9417;16.484;102.872;2023-05-29T12:13:57;29.00;88.90
18575;DHT22;9417;16.484;102.872;2023-05-29T12:16:05;29.00;88.80
18575;DHT22;9417;16.484;102.872;2023-05-29T12:18:13;29.00;88.90
18575;DHT22;9417;16.484;102.872;2023-05-29T12:20:23;29.00;88.90
18575;DHT22;9417;16.484;102.872;2023-05-29T12:22:33;28.90;88.80
18575;DHT22;9417;16.484;102.872;2023-05-29T12:24:41;28.90;88.70
18575;DHT22;9417;16.484;102.872;2023-05-29T12:26:48;28.90;88.70
18575;DHT22;9417;16.484;102.872;2023-05-29T12:28:55;28.90;88.60
18575;DHT22;9417;16.484;102.872;2023-05-29T12:31:03;28.90;88.60
18575;DHT22;9417;16.484;102.872;2023-05-29T12:33:10;29.00;88.60
18575;DHT22;9417;16.484;102.872;2023-05-29T12:35:34;28.90;88.30
18575;DHT22;9417;16.484;102.872;2023-05-29T12:37:45;28.90;88.30
18575;DHT22;9417;16.484;102.872;2023-05-29T12:40:12;28.90;88.00
18575;DHT22;9417;16.484;102.872;2023-05-29T12:42:20;28.90;87.60
18575;DHT22;9417;16.484;102.872;2023-05-29T12:44:29;28.90;87.70
18575;DHT22;9417;16.484;102.872;2023-05-29T12:46:37;28.90;87.80
18575;DHT22;9417;16.484;102.872;2023-05-29T12:48:45;28.90;88.20
18575;DHT22;9417;16.484;102.872;2023-05-29T12:50:54;28.90;88.40
18575;DHT22;9417;16.484;102.872;2023-05-29T12:53:03;28.90;88.60
18575;DHT22;9417;16.484;102.872;2023-05-29T12:55:11;28.90;88.60
18575;DHT22;9417;16.484;102.872;2023-05-29T12:57:18;28.80;88.50
18575;DHT22;9417;16.484;102.872;2023-05-29T12:59:26;28.90;88.50
18575;DHT22;9417;16.484;102.872;2023-05-29T13:01:34;28.90;88.60
18575;DHT22;9417;16.484;102.872;2023-05-29T13:03:42;28.80;89.10
18575;DHT22;9417;16.484;102.872;2023-05-29T13:05:49;28.80;89.40
18575;DHT22;9417;16.484;102.872;2023-05-29T13:07:59;28.70;89.80
18575;DHT22;9417;16.484;102.872;2023-05-29T13:10:08;28.70;90.40
18575;DHT22;9417;16.484;102.872;2023-05-29T13:12:15;28.70;90.80
18575;DHT22;9417;16.484;102.872;2023-05-29T13:14:23;28.70;91.20
18575;DHT22;9417;16.484;102.872;2023-05-29T13:16:30;28.70;91.50
18575;DHT22;9417;16.484;102.872;2023-05-29T13:18:38;28.60;91.70
18575;DHT22;9417;16.484;102.872;2023-05-29T13:20:45;28.60;91.70
18575;DHT22;9417;16.484;102.872;2023-05-29T13:22:53;28.50;91.80